Time;durP1;ratioP1;P1;durP2;ratioP2;P2;SDS_P1;SDS_P2;PMS_P1;PMS_P2;Temp;Humidity;BMP_temperature;BMP_pressure;BME280_temperature;BME280_humidity;BME280_pressure;Samples;Min_cycle;Max_cycle;Signal;HPM_P1;HPM_P2
2021/09/14 00:01:55;;;;;;;22.45;16.60;;;23.60;50.00;;;;;;4151660;28;20105;-46
2021/09/14 00:04:18;;;;;;;22.30;16.75;;;23.60;50.00;;;;;;4165423;28;20089;-46
2021/09/14 00:06:40;;;;;;;22.08;17.30;;;23.60;50.10;;;;;;4165262;28;20050;-47
2021/09/14 00:09:03;;;;;;;23.33;16.30;;;23.60;50.00;;;;;;4165805;28;20056;-47
2021/09/14 00:11:25;;;;;;;23.80;16.40;;;23.70;50.10;;;;;;4165987;28;20048;-45
2021/09/14 00:13:47;;;;;;;21.88;16.25;;;23.60;50.10;;;;;;4165150;28;20043;-49
2021/09/14 00:16:09;;;;;;;25.35;17.00;;;23.60;49.90;;;;;;4165208;28;20606;-46
2021/09/14 00:18:33;;;;;;;20.98;15.30;;;23.60;50.00;;;;;;4165147;28;20072;-49
2021/09/14 00:20:55;;;;;;;20.95;16.38;;;23.60;49.80;;;;;;4164229;28;20042;-45
2021/09/14 00:23:18;;;;;;;21.65;15.52;;;23.70;49.90;;;;;;4150183;28;20042;-45
2021/09/14 00:25:40;;;;;;;22.23;15.45;;;23.60;49.80;;;;;;4164571;28;20046;-47
2021/09/14 00:28:03;;;;;;;20.48;15.35;;;23.70;49.90;;;;;;4164940;28;20050;-47
2021/09/14 00:30:26;;;;;;;21.38;14.55;;;23.70;49.90;;;;;;4164974;28;20046;-47
2021/09/14 00:32:49;;;;;;;17.08;14.55;;;23.70;49.90;;;;;;4150662;28;20053;-46
2021/09/14 00:35:13;;;;;;;18.55;15.48;;;23.60;49.90;;;;;;4165319;28;20038;-49
2021/09/14 00:37:35;;;;;;;20.38;15.75;;;23.60;50.00;;;;;;4164926;28;20046;-45
2021/09/14 00:39:58;;;;;;;23.17;15.23;;;23.60;50.00;;;;;;4165778;28;20042;-44
2021/09/14 00:42:20;;;;;;;18.70;14.30;;;23.60;50.00;;;;;;4164927;28;20038;-47
2021/09/14 00:44:42;;;;;;;17.85;14.77;;;23.60;50.10;;;;;;4165026;28;20042;-46
2021/09/14 00:47:05;;;;;;;19.30;14.52;;;23.60;50.20;;;;;;4164531;28;20048;-45
2021/09/14 00:49:29;;;;;;;19.15;14.10;;;23.60;50.50;;;;;;4150784;28;20042;-47
2021/09/14 00:51:52;;;;;;;17.60;14.07;;;23.60;50.30;;;;;;4164536;28;20077;-44
2021/09/14 00:54:15;;;;;;;18.77;14.32;;;23.60;50.40;;;;;;4163987;28;20053;-46
2021/09/14 00:56:38;;;;;;;19.65;13.93;;;23.60;50.30;;;;;;4164847;28;20105;-44
2021/09/14 00:59:01;;;;;;;18.17;13.70;;;23.60;50.50;;;;;;4165531;28;20061;-47
2021/09/14 01:01:23;;;;;;;18.65;13.40;;;23.60;50.30;;;;;;4163844;28;20072;-45
2021/09/14 01:03:46;;;;;;;17.23;13.55;;;23.60;50.40;;;;;;4164006;28;20505;-44
2021/09/14 01:06:09;;;;;;;20.38;15.20;;;23.60;50.40;;;;;;4164573;28;20044;-44
2021/09/14 01:08:32;;;;;;;20.92;14.77;;;23.60;50.50;;;;;;4164610;28;20054;-44
2021/09/14 01:10:54;;;;;;;16.60;13.40;;;23.60;50.30;;;;;;4166564;28;20046;-44
2021/09/14 01:13:17;;;;;;;20.65;14.38;;;23.60;50.30;;;;;;4166396;28;20048;-44
2021/09/14 01:15:39;;;;;;;18.40;13.52;;;23.60;50.50;;;;;;4165890;28;20110;-43
2021/09/14 01:18:03;;;;;;;18.02;14.32;;;23.60;50.50;;;;;;4153170;28;20049;-43
2021/09/14 01:20:25;;;;;;;17.38;13.70;;;23.60;50.50;;;;;;4165116;28;20046;-44
2021/09/14 01:22:50;;;;;;;16.42;13.75;;;23.60;50.30;;;;;;4166428;28;20046;-49
2021/09/14 01:25:21;;;;;;;17.15;13.05;;;23.60;50.40;;;;;;4152676;28;20050;-48
2021/09/14 01:27:43;;;;;;;17.70;12.00;;;23.50;50.40;;;;;;4165288;28;20057;-43
2021/09/14 01:30:13;;;;;;;15.80;11.90;;;23.60;50.40;;;;;;4166313;28;20505;-48
2021/09/14 01:32:35;;;;;;;18.50;12.55;;;23.60;50.40;;;;;;4166073;28;20046;-46
2021/09/14 01:35:05;;;;;;;15.18;11.57;;;23.60;50.40;;;;;;4166159;28;20045;-45
2021/09/14 01:37:27;;;;;;;16.50;11.75;;;23.60;50.30;;;;;;4166760;28;20046;-44
2021/09/14 01:39:49;;;;;;;16.60;12.35;;;23.60;50.30;;;;;;4166743;28;20056;-44
2021/09/14 01:42:12;;;;;;;14.45;11.20;;;23.50;50.30;;;;;;4165667;28;20046;-44
2021/09/14 01:44:35;;;;;;;17.10;11.15;;;23.50;50.30;;;;;;4165549;28;20045;-44
2021/09/14 01:46:57;;;;;;;16.70;11.43;;;23.50;50.40;;;;;;4165543;28;20042;-45
2021/09/14 01:49:19;;;;;;;14.27;11.65;;;23.60;50.40;;;;;;4166051;28;20045;-44
2021/09/14 01:51:42;;;;;;;15.00;11.98;;;23.60;50.40;;;;;;4165531;28;20058;-46
2021/09/14 01:54:04;;;;;;;14.65;12.05;;;23.50;50.50;;;;;;4164999;28;20106;-45
2021/09/14 01:56:27;;;;;;;15.93;11.90;;;23.60;50.40;;;;;;4165451;28;20048;-44
2021/09/14 01:58:50;;;;;;;16.48;12.48;;;23.60;50.50;;;;;;4165484;28;20046;-43
2021/09/14 02:01:26;;;;;;;15.95;11.07;;;23.50;50.50;;;;;;4164531;28;20061;-43
2021/09/14 02:23:41;;;;;;;14.00;10.63;;;23.60;50.40;;;;;;4164486;28;20038;-45
2021/09/14 02:58:37;;;;;;;13.88;9.40;;;23.60;50.80;;;;;;4165469;28;20058;-48
2021/09/14 02:59:26;;;;;;;13.13;8.98;;;23.50;50.70;;;;;;4165495;28;20050;-43
2021/09/14 03:01:48;;;;;;;12.23;9.18;;;23.60;50.50;;;;;;4165966;28;20044;-44
2021/09/14 03:04:13;;;;;;;12.27;9.07;;;23.60;50.50;;;;;;4164853;28;20045;-43
2021/09/14 03:06:35;;;;;;;10.38;8.90;;;23.60;50.50;;;;;;4165383;28;20038;-46
2021/09/14 03:08:58;;;;;;;11.30;9.30;;;23.60;50.50;;;;;;4166046;28;20499;-43
2021/09/14 03:11:20;;;;;;;12.35;8.95;;;23.60;50.50;;;;;;4164836;28;20433;-44
2021/09/14 03:13:43;;;;;;;11.77;9.27;;;23.60;50.50;;;;;;4165198;28;20056;-44
2021/09/14 03:16:11;;;;;;;10.68;8.88;;;23.60;50.50;;;;;;4165062;28;20069;-42
2021/09/14 03:18:35;;;;;;;13.07;9.32;;;23.60;50.50;;;;;;4151110;28;20109;-43
2021/09/14 03:20:57;;;;;;;12.70;9.50;;;23.60;50.50;;;;;;4165066;28;20068;-44
2021/09/14 03:23:19;;;;;;;12.70;9.65;;;23.60;50.70;;;;;;4151485;28;20053;-43
2021/09/14 03:25:43;;;;;;;11.13;8.75;;;23.60;50.80;;;;;;4166419;28;20141;-43
2021/09/14 03:28:06;;;;;;;11.90;9.23;;;23.60;50.70;;;;;;4153978;28;20038;-44
2021/09/14 03:30:28;;;;;;;11.43;9.43;;;23.60;50.80;;;;;;4168099;28;20036;-44
2021/09/14 03:32:51;;;;;;;11.48;9.60;;;23.60;50.70;;;;;;4167552;28;20048;-43
2021/09/14 03:35:13;;;;;;;10.73;8.30;;;23.60;50.80;;;;;;4168609;28;20038;-43
2021/09/14 03:37:36;;;;;;;12.48;8.32;;;23.60;50.90;;;;;;4153834;28;20038;-43
2021/09/14 03:39:58;;;;;;;11.05;8.68;;;23.60;50.80;;;;;;4168094;28;20042;-44
2021/09/14 03:42:20;;;;;;;13.02;8.55;;;23.60;50.90;;;;;;4167384;28;20046;-43
2021/09/14 03:44:42;;;;;;;9.35;7.97;;;23.60;50.70;;;;;;4167205;28;20042;-47
2021/09/14 03:47:05;;;;;;;11.85;8.25;;;23.60;51.00;;;;;;4167873;28;20042;-45
2021/09/14 03:49:27;;;;;;;14.02;8.90;;;23.60;50.90;;;;;;4167850;28;20042;-43
2021/09/14 03:51:49;;;;;;;11.25;9.07;;;23.60;51.00;;;;;;4167661;28;20080;-49
2021/09/14 03:54:11;;;;;;;10.90;8.43;;;23.60;50.90;;;;;;4167700;28;20112;-44
2021/09/14 03:56:34;;;;;;;11.85;8.50;;;23.60;50.90;;;;;;4167109;28;20105;-44
2021/09/14 03:58:56;;;;;;;11.77;8.13;;;23.50;50.90;;;;;;4167750;28;20101;-46
2021/09/14 04:01:18;;;;;;;11.30;9.07;;;23.50;51.00;;;;;;4153211;28;20050;-46
2021/09/14 04:03:44;;;;;;;10.02;8.85;;;23.60;51.10;;;;;;4168226;28;20088;-43
2021/09/14 04:08:56;;;;;;;11.25;9.23;;;23.60;50.90;;;;;;4148806;28;20064;-44
2021/09/14 04:11:21;;;;;;;9.88;7.85;;;23.60;51.10;;;;;;4166893;28;20048;-45
2021/09/14 04:13:44;;;;;;;9.07;8.15;;;23.60;51.10;;;;;;4153685;28;20042;-43
2021/09/14 04:16:06;;;;;;;12.13;8.80;;;23.60;51.00;;;;;;4167954;28;20106;-43
2021/09/14 04:18:28;;;;;;;12.80;7.70;;;23.60;51.30;;;;;;4167294;28;20101;-43
2021/09/14 04:20:50;;;;;;;10.80;8.32;;;23.60;51.00;;;;;;4166620;28;20034;-43
2021/09/14 04:23:13;;;;;;;9.77;8.07;;;23.60;51.00;;;;;;4167111;28;20509;-43
2021/09/14 04:25:35;;;;;;;9.20;7.82;;;23.60;51.00;;;;;;4167798;28;20044;-44
2021/09/14 04:27:57;;;;;;;9.32;7.75;;;23.60;50.90;;;;;;4167329;28;20047;-45
2021/09/14 04:30:20;;;;;;;11.23;7.82;;;23.60;51.00;;;;;;4153081;28;20046;-45
2021/09/14 04:32:42;;;;;;;9.23;6.90;;;23.60;51.10;;;;;;4167051;28;20105;-43
2021/09/14 04:35:05;;;;;;;8.90;7.22;;;23.50;51.10;;;;;;4166423;28;20048;-43
2021/09/14 04:37:27;;;;;;;9.32;7.25;;;23.50;51.00;;;;;;4166378;28;20042;-43
2021/09/14 04:39:50;;;;;;;10.35;7.85;;;23.60;51.20;;;;;;4166565;28;20114;-44
2021/09/14 04:42:12;;;;;;;10.32;7.57;;;23.60;51.10;;;;;;4166886;28;20052;-44
2021/09/14 04:44:36;;;;;;;9.32;7.88;;;23.60;51.00;;;;;;4166377;28;20045;-45
2021/09/14 04:46:59;;;;;;;11.98;8.02;;;23.60;51.10;;;;;;4152760;28;20042;-44
2021/09/14 04:49:21;;;;;;;10.20;8.07;;;23.50;51.20;;;;;;4167520;28;20038;-45
2021/09/14 04:51:43;;;;;;;8.65;6.93;;;23.50;51.10;;;;;;4166224;28;20041;-45
2021/09/14 04:54:06;;;;;;;9.35;7.40;;;23.50;51.20;;;;;;4152600;28;20068;-44
2021/09/14 04:56:28;;;;;;;18.27;8.82;;;23.60;51.10;;;;;;4166327;28;20576;-48
2021/09/14 04:58:50;;;;;;;28.52;13.13;;;23.60;51.20;;;;;;4166731;28;20046;-48
2021/09/14 05:01:17;;;;;;;32.53;10.55;;;23.50;51.20;;;;;;4166158;28;20050;-50
2021/09/14 05:03:39;;;;;;;26.67;10.10;;;23.50;51.60;;;;;;4166837;28;20398;-50
2021/09/14 05:06:06;;;;;;;30.77;10.55;;;23.40;51.80;;;;;;4165712;28;20042;-48
2021/09/14 05:08:28;;;;;;;30.23;13.65;;;23.40;51.90;;;;;;4166037;28;20048;-47
2021/09/14 05:10:51;;;;;;;20.48;10.55;;;23.40;51.90;;;;;;4166654;28;20037;-47
2021/09/14 05:13:14;;;;;;;18.02;11.02;;;23.30;52.20;;;;;;4166105;28;20060;-47
2021/09/14 05:15:36;;;;;;;25.42;11.32;;;23.30;52.00;;;;;;4166134;28;20042;-49
2021/09/14 05:17:58;;;;;;;20.05;9.57;;;23.30;52.10;;;;;;4165256;28;20042;-48
2021/09/14 05:20:21;;;;;;;24.15;13.88;;;23.30;52.10;;;;;;4166575;28;20113;-49
2021/09/14 05:22:44;;;;;;;23.92;13.27;;;23.30;52.10;;;;;;4165886;28;20057;-49
2021/09/14 05:25:06;;;;;;;22.65;12.73;;;23.30;52.20;;;;;;4165249;28;20056;-48
2021/09/14 05:27:29;;;;;;;24.70;9.82;;;23.30;52.50;;;;;;4166872;28;20046;-46
2021/09/14 05:29:51;;;;;;;25.00;10.18;;;23.30;52.50;;;;;;4166271;28;20060;-51
2021/09/14 05:32:17;;;;;;;20.55;10.32;;;23.30;52.30;;;;;;4165450;28;20046;-51
2021/09/14 05:34:39;;;;;;;;;;;23.30;52.10;;;;;;4166025;28;20113;-50
2021/09/14 05:37:01;;;;;;;19.67;10.20;;;23.20;52.20;;;;;;4166042;28;19921;-49
2021/09/14 05:39:24;;;;;;;17.20;10.35;;;23.20;52.10;;;;;;4164811;28;20105;-53
2021/09/14 05:41:46;;;;;;;22.30;10.32;;;23.20;51.80;;;;;;4166139;28;20053;-53
2021/09/14 05:44:09;;;;;;;16.30;8.43;;;23.20;52.00;;;;;;4165520;28;20042;-53
2021/09/14 05:46:31;;;;;;;21.00;10.25;;;23.20;52.00;;;;;;4166142;28;20034;-52
2021/09/14 05:48:54;;;;;;;21.48;11.05;;;23.20;52.00;;;;;;4164430;28;20045;-48
2021/09/14 05:51:16;;;;;;;20.83;12.43;;;23.20;52.10;;;;;;4165237;28;20045;-50
2021/09/14 05:53:38;;;;;;;38.42;22.33;;;23.20;51.90;;;;;;4164199;28;20045;-49
2021/09/14 05:56:01;;;;;;;56.55;37.75;;;23.20;52.00;;;;;;4164816;28;20078;-46
2021/09/14 05:58:24;;;;;;;45.95;31.58;;;23.20;52.00;;;;;;4165624;28;20042;-46
2021/09/14 06:00:47;;;;;;;34.65;22.63;;;23.20;52.20;;;;;;4150526;28;20038;-45
2021/09/14 06:03:09;;;;;;;29.63;18.38;;;23.20;52.20;;;;;;4164261;28;20057;-45
2021/09/14 06:05:32;;;;;;;51.67;40.80;;;23.20;52.50;;;;;;4165780;28;20034;-46
2021/09/14 06:07:55;;;;;;;45.42;32.58;;;23.20;52.80;;;;;;4165366;28;20100;-56
2021/09/14 06:10:17;;;;;;;29.73;24.35;;;23.20;52.80;;;;;;4165175;28;20057;-56
2021/09/14 06:12:40;;;;;;;27.98;22.27;;;23.20;52.80;;;;;;4164877;28;20046;-52
2021/09/14 06:15:02;;;;;;;27.80;18.70;;;23.20;52.90;;;;;;4168591;28;20041;-56
2021/09/14 06:17:25;;;;;;;23.10;15.93;;;23.10;52.90;;;;;;4179683;28;20042;-51
2021/09/14 06:19:47;;;;;;;25.10;14.63;;;23.10;52.90;;;;;;4181412;28;20056;-49
2021/09/14 06:22:09;;;;;;;20.45;14.43;;;23.10;52.90;;;;;;4180000;28;20042;-56
2021/09/14 06:24:32;;;;;;;17.83;13.48;;;23.10;52.90;;;;;;4180691;28;20050;-55
2021/09/14 06:26:54;;;;;;;22.50;12.98;;;23.10;52.90;;;;;;4180997;28;20101;-54
2021/09/14 06:29:17;;;;;;;20.45;11.73;;;23.10;53.00;;;;;;4179945;28;20038;-54
2021/09/14 06:31:39;;;;;;;20.67;12.15;;;23.10;53.00;;;;;;4179770;28;20042;-53
2021/09/14 06:34:01;;;;;;;20.52;11.93;;;23.10;53.10;;;;;;4180154;28;20046;-52
2021/09/14 06:36:23;;;;;;;17.33;10.63;;;23.10;53.20;;;;;;4181085;28;20045;-52
2021/09/14 06:38:46;;;;;;;19.33;10.95;;;23.10;53.30;;;;;;4180444;28;20140;-51
2021/09/14 06:41:08;;;;;;;14.45;10.73;;;23.10;53.50;;;;;;4181621;28;20056;-52
2021/09/14 06:43:30;;;;;;;20.98;11.10;;;23.00;53.50;;;;;;4180582;28;20038;-52
2021/09/14 06:45:53;;;;;;;19.90;11.77;;;23.10;53.50;;;;;;4180686;28;20042;-47
2021/09/14 06:48:16;;;;;;;33.35;22.20;;;23.10;53.60;;;;;;4168190;28;20109;-49
2021/09/14 06:50:38;;;;;;;51.53;44.33;;;23.10;53.60;;;;;;4180401;28;20048;-46
2021/09/14 06:53:01;;;;;;;37.30;29.52;;;23.10;53.70;;;;;;4180563;28;20047;-45
2021/09/14 06:55:23;;;;;;;36.90;24.77;;;23.10;53.90;;;;;;4180731;28;20109;-49
2021/09/14 06:57:45;;;;;;;25.63;18.48;;;23.10;53.70;;;;;;4180431;28;20050;-47
2021/09/14 07:00:08;;;;;;;27.58;17.42;;;23.10;53.80;;;;;;4181447;28;20046;-48
2021/09/14 07:02:30;;;;;;;32.63;16.52;;;23.10;53.90;;;;;;4170056;28;20109;-46
2021/09/14 07:04:58;;;;;;;22.25;15.27;;;23.10;53.90;;;;;;4183199;28;20137;-45
2021/09/14 07:07:20;;;;;;;27.40;13.93;;;23.10;54.00;;;;;;4184024;28;20049;-45
2021/09/14 07:09:42;;;;;;;27.73;13.57;;;23.10;54.10;;;;;;4183721;28;20068;-48
2021/09/14 07:12:06;;;;;;;22.60;13.40;;;23.10;54.00;;;;;;4182439;28;20050;-48
2021/09/14 07:14:28;;;;;;;20.10;13.48;;;23.10;53.90;;;;;;4184062;28;20060;-50
2021/09/14 07:16:50;;;;;;;17.58;12.82;;;23.10;54.10;;;;;;4182850;28;20049;-46
2021/09/14 07:19:12;;;;;;;24.85;13.57;;;23.10;54.00;;;;;;4182227;28;20046;-46
2021/09/14 07:21:35;;;;;;;22.48;12.68;;;23.10;54.30;;;;;;4183924;28;20135;-48
2021/09/14 07:23:57;;;;;;;22.65;13.90;;;23.10;54.10;;;;;;4182989;28;20379;-49
2021/09/14 07:26:19;;;;;;;20.83;13.13;;;23.20;54.30;;;;;;4182606;28;20037;-47
2021/09/14 07:28:42;;;;;;;26.80;13.48;;;23.20;54.20;;;;;;4184104;28;20048;-46
2021/09/14 07:31:05;;;;;;;20.20;12.25;;;23.10;54.20;;;;;;4183900;28;20104;-45
2021/09/14 07:33:27;;;;;;;15.85;12.65;;;23.10;54.30;;;;;;4183098;28;20041;-46
2021/09/14 07:35:50;;;;;;;17.85;12.10;;;23.20;54.20;;;;;;4183199;28;20047;-47
2021/09/14 07:38:12;;;;;;;22.48;12.07;;;23.10;54.40;;;;;;4183303;28;20056;-46
2021/09/14 07:40:34;;;;;;;16.00;12.05;;;23.10;54.30;;;;;;4183643;28;20049;-45
2021/09/14 07:42:58;;;;;;;21.45;12.60;;;23.20;54.30;;;;;;4183665;28;20038;-46
2021/09/14 07:45:21;;;;;;;29.63;13.13;;;23.10;54.40;;;;;;4183755;28;20110;-52
2021/09/14 07:47:43;;;;;;;19.02;12.40;;;23.10;54.50;;;;;;4183626;28;20038;-49
2021/09/14 07:50:06;;;;;;;15.95;11.65;;;23.10;54.00;;;;;;4183576;28;20041;-48
2021/09/14 07:52:28;;;;;;;20.83;11.98;;;23.20;54.20;;;;;;4182267;28;20046;-46
2021/09/14 07:54:51;;;;;;;24.15;11.82;;;23.20;54.50;;;;;;4183343;28;20052;-47
2021/09/14 07:57:13;;;;;;;18.98;11.32;;;23.20;54.50;;;;;;4181920;28;20076;-47
2021/09/14 07:59:35;;;;;;;24.70;11.85;;;23.20;54.40;;;;;;4183128;28;20046;-45
2021/09/14 08:01:58;;;;;;;22.08;11.38;;;23.20;54.30;;;;;;4182174;28;20041;-44
2021/09/14 08:04:20;;;;;;;19.25;11.57;;;23.20;54.40;;;;;;4183107;28;20048;-46
2021/09/14 08:06:43;;;;;;;17.10;12.20;;;23.20;54.10;;;;;;4183637;28;20049;-47
2021/09/14 08:09:05;;;;;;;20.25;12.90;;;23.20;54.00;;;;;;4182841;28;20116;-49
2021/09/14 08:11:29;;;;;;;20.35;12.50;;;23.20;54.50;;;;;;4181264;28;20077;-48
2021/09/14 08:13:51;;;;;;;21.90;12.57;;;23.20;54.40;;;;;;4181634;28;20101;-46
2021/09/14 08:16:14;;;;;;;22.65;12.25;;;23.20;54.10;;;;;;4181170;28;20044;-47
2021/09/14 08:18:36;;;;;;;16.60;11.55;;;23.30;54.10;;;;;;4181156;28;20045;-48
2021/09/14 08:20:58;;;;;;;19.45;12.05;;;23.20;53.80;;;;;;4182685;28;20049;-46
2021/09/14 08:23:21;;;;;;;19.15;12.52;;;23.30;54.40;;;;;;4164057;28;20046;-47
2021/09/14 08:25:43;;;;;;;18.33;11.40;;;23.20;53.80;;;;;;4165630;28;20042;-49
2021/09/14 08:28:06;;;;;;;20.58;12.82;;;23.30;53.90;;;;;;4166579;28;20101;-45
2021/09/14 08:30:28;;;;;;;16.67;12.23;;;23.20;54.00;;;;;;4164025;28;20046;-45
2021/09/14 08:32:51;;;;;;;16.17;11.45;;;23.20;54.00;;;;;;4166394;28;20049;-46
2021/09/14 08:35:13;;;;;;;16.60;11.23;;;23.30;53.90;;;;;;4166348;28;20046;-47
2021/09/14 08:37:35;;;;;;;18.90;12.20;;;23.30;53.90;;;;;;4164352;28;20046;-45
2021/09/14 08:39:59;;;;;;;16.90;12.88;;;23.30;54.10;;;;;;4165614;28;20049;-47
2021/09/14 08:42:22;;;;;;;19.58;12.88;;;23.30;54.20;;;;;;4151295;28;20069;-47
2021/09/14 08:44:44;;;;;;;19.40;12.38;;;23.30;54.10;;;;;;4166094;28;20097;-46
2021/09/14 08:47:09;;;;;;;20.42;13.38;;;23.30;54.10;;;;;;4164759;28;20046;-50
2021/09/14 08:49:31;;;;;;;18.15;12.38;;;23.30;53.90;;;;;;3816322;28;10000543;-52
2021/09/14 08:51:55;;;;;;;24.65;12.02;;;23.30;54.50;;;;;;4165633;28;20045;-48
2021/09/14 08:54:18;;;;;;;19.60;11.73;;;23.30;54.20;;;;;;4165989;28;20049;-47
2021/09/14 08:56:40;;;;;;;17.20;12.25;;;23.30;54.10;;;;;;4166983;28;20046;-50
2021/09/14 08:59:04;;;;;;;23.50;13.38;;;23.30;54.10;;;;;;4166307;28;20042;-47
2021/09/14 09:01:27;;;;;;;22.02;12.85;;;23.30;54.30;;;;;;4164045;28;20038;-48
2021/09/14 09:04:01;;;;;;;30.52;15.57;;;23.30;54.00;;;;;;4151368;28;20057;-49
2021/09/14 09:06:34;;;;;;;20.00;12.30;;;23.40;54.10;;;;;;4166156;28;20069;-50
2021/09/14 09:09:18;;;;;;;24.48;12.90;;;23.40;53.80;;;;;;4164670;28;20046;-48
2021/09/14 09:12:07;;;;;;;25.67;13.07;;;23.40;53.80;;;;;;4166647;28;20079;-50
2021/09/14 09:14:32;;;;;;;26.90;13.52;;;23.40;53.80;;;;;;4164194;28;20048;-48
2021/09/14 09:17:13;;;;;;;18.58;11.70;;;23.40;53.70;;;;;;4165567;28;20056;-47
2021/09/14 09:19:36;;;;;;;25.92;14.50;;;23.40;53.60;;;;;;4150942;28;20049;-45
2021/09/14 09:22:01;;;;;;;21.67;13.43;;;23.40;53.70;;;;;;4164993;28;20042;-45
2021/09/14 09:24:23;;;;;;;23.05;14.13;;;23.40;53.80;;;;;;4162414;28;20058;-48
2021/09/14 09:26:45;;;;;;;16.05;12.20;;;23.40;53.60;;;;;;4165326;28;20049;-49
2021/09/14 09:29:09;;;;;;;24.55;13.65;;;23.40;54.00;;;;;;4163644;28;20041;-47
2021/09/14 09:31:36;;;;;;;28.63;14.05;;;23.40;53.70;;;;;;4162892;28;20038;-50
2021/09/14 09:34:04;;;;;;;21.27;13.55;;;23.40;53.50;;;;;;4165292;28;20049;-46
2021/09/14 09:36:40;;;;;;;20.30;13.27;;;23.40;53.60;;;;;;4163554;28;20045;-48
2021/09/14 09:39:05;;;;;;;27.33;14.13;;;23.40;53.70;;;;;;4163709;28;20052;-47
2021/09/14 09:41:27;;;;;;;17.90;13.60;;;23.40;53.60;;;;;;4166188;28;20061;-46
2021/09/14 09:43:49;;;;;;;22.10;13.80;;;23.40;53.60;;;;;;4165262;28;20045;-47
2021/09/14 09:46:19;;;;;;;17.85;13.23;;;23.40;53.90;;;;;;4165399;28;20044;-46
2021/09/14 09:48:41;;;;;;;18.27;12.18;;;23.40;53.60;;;;;;4164949;28;20045;-50
2021/09/14 09:51:06;;;;;;;19.35;12.98;;;23.40;53.60;;;;;;4164355;28;20050;-49
2021/09/14 09:53:29;;;;;;;16.48;12.15;;;23.40;53.70;;;;;;4165314;28;20046;-48
2021/09/14 09:55:51;;;;;;;19.83;13.40;;;23.40;53.50;;;;;;4163930;28;20053;-47
2021/09/14 09:58:14;;;;;;;17.83;13.00;;;23.40;53.60;;;;;;4151926;28;20161;-49
2021/09/14 10:00:40;;;;;;;21.83;12.98;;;23.50;53.50;;;;;;4165580;28;20046;-51
2021/09/14 10:03:08;;;;;;;19.23;13.68;;;23.40;53.50;;;;;;4163802;28;20070;-52
2021/09/14 10:05:34;;;;;;;19.20;13.88;;;23.40;53.50;;;;;;4165443;28;20046;-47
2021/09/14 10:08:01;;;;;;;;;;;23.40;53.40;;;;;;4166453;28;20049;-48
2021/09/14 10:10:36;;;;;;;;;;;23.40;53.40;;;;;;4165515;28;19928;-47
2021/09/14 10:13:02;;;;;;;18.08;12.35;;;23.50;53.60;;;;;;4164395;28;19921;-48
2021/09/14 10:15:35;;;;;;;18.20;13.27;;;23.50;53.50;;;;;;4164464;28;20112;-50
2021/09/14 10:17:58;;;;;;;19.50;13.43;;;23.50;53.40;;;;;;4165190;28;20052;-50
2021/09/14 10:20:25;;;;;;;21.67;13.27;;;23.50;53.30;;;;;;4165046;28;20042;-47
2021/09/14 10:23:04;;;;;;;19.15;14.05;;;23.50;53.30;;;;;;4163330;28;20041;-49
2021/09/14 10:25:27;;;;;;;17.85;13.20;;;23.40;53.70;;;;;;4165684;28;20052;-47
2021/09/14 10:27:50;;;;;;;19.48;14.32;;;23.40;53.50;;;;;;4163593;28;20049;-59
2021/09/14 10:30:14;;;;;;;17.33;14.05;;;23.50;53.60;;;;;;4163571;28;20045;-58
2021/09/14 10:32:45;;;;;;;20.85;15.90;;;23.50;53.50;;;;;;4165149;28;20074;-47
2021/09/14 10:35:09;;;;;;;21.60;14.02;;;23.50;53.70;;;;;;4166447;28;20046;-48
2021/09/14 10:37:32;;;;;;;24.85;16.08;;;23.50;53.50;;;;;;4165650;28;20053;-50
2021/09/14 10:40:12;;;;;;;24.45;13.95;;;23.50;53.50;;;;;;4166636;28;20052;-49
2021/09/14 10:42:38;;;;;;;22.63;13.85;;;23.60;53.40;;;;;;4166567;28;20049;-48
2021/09/14 10:45:08;;;;;;;19.23;14.10;;;23.60;53.40;;;;;;4167672;28;20053;-45
2021/09/14 10:47:36;;;;;;;25.10;14.82;;;23.60;53.30;;;;;;4165491;28;20053;-47
2021/09/14 10:50:00;;;;;;;25.30;15.75;;;23.60;53.30;;;;;;4165546;28;20041;-47
2021/09/14 10:52:33;;;;;;;18.85;13.43;;;23.60;53.40;;;;;;4165391;28;20587;-49
2021/09/14 10:54:56;;;;;;;22.17;14.02;;;23.60;53.30;;;;;;4166576;28;20109;-51
2021/09/14 10:57:21;;;;;;;22.48;13.60;;;23.60;53.20;;;;;;4165620;28;20045;-50
2021/09/14 10:59:48;;;;;;;23.17;13.95;;;23.60;53.60;;;;;;4166453;28;20038;-47
2021/09/14 11:02:10;;;;;;;23.13;13.98;;;23.60;53.60;;;;;;4165327;28;20110;-48
2021/09/14 11:04:33;;;;;;;31.65;14.23;;;23.60;53.40;;;;;;4166827;28;20056;-48
2021/09/14 11:06:55;;;;;;;34.92;15.27;;;23.60;53.50;;;;;;4167562;28;20097;-52
2021/09/14 11:09:17;;;;;;;52.60;29.70;;;23.70;53.50;;;;;;4166421;28;20046;-47
2021/09/14 11:11:40;;;;;;;31.80;17.20;;;23.60;53.50;;;;;;4167048;28;20048;-50
2021/09/14 11:14:02;;;;;;;24.85;14.13;;;23.60;53.40;;;;;;4166191;28;20046;-50
2021/09/14 11:16:24;;;;;;;26.63;13.63;;;23.60;53.50;;;;;;4165958;28;20045;-47
2021/09/14 11:18:47;;;;;;;30.77;17.52;;;23.60;53.50;;;;;;4167285;28;20064;-47
2021/09/14 11:21:15;;;;;;;36.47;15.88;;;23.60;53.60;;;;;;4166045;28;20056;-47
2021/09/14 11:23:40;;;;;;;29.95;16.92;;;23.70;53.50;;;;;;4170032;28;20063;-50
2021/09/14 11:26:03;;;;;;;49.00;31.80;;;23.60;53.40;;;;;;4183751;28;20097;-54
2021/09/14 11:28:26;;;;;;;35.65;22.33;;;23.60;53.30;;;;;;4183449;28;20279;-55
2021/09/14 11:30:57;;;;;;;18.98;12.07;;;23.60;53.40;;;;;;4182984;28;20045;-51
2021/09/14 11:33:20;;;;;;;22.52;15.55;;;23.60;53.50;;;;;;4182391;28;20049;-48
2021/09/14 11:35:43;;;;;;;27.05;15.93;;;23.60;53.40;;;;;;4181865;28;20042;-48
2021/09/14 11:38:11;;;;;;;19.42;13.02;;;23.60;53.60;;;;;;4181407;28;20054;-47
2021/09/14 11:40:44;;;;;;;18.30;11.05;;;23.60;53.60;;;;;;4181552;28;20041;-48
2021/09/14 11:43:06;;;;;;;17.48;11.75;;;23.60;53.60;;;;;;4182841;28;20056;-46
2021/09/14 11:45:32;;;;;;;22.95;15.25;;;23.60;53.50;;;;;;4182082;28;20055;-47
2021/09/14 11:47:55;;;;;;;36.35;11.82;;;23.60;53.70;;;;;;4183074;28;20049;-48
2021/09/14 11:50:36;;;;;;;27.85;16.38;;;23.60;53.70;;;;;;4181155;28;20075;-47
2021/09/14 11:53:11;;;;;;;17.08;12.20;;;23.60;53.70;;;;;;4182798;28;20056;-48
2021/09/14 11:55:38;;;;;;;28.73;15.75;;;23.60;53.50;;;;;;4167458;28;20037;-48
2021/09/14 11:58:01;;;;;;;18.88;11.90;;;23.60;54.00;;;;;;4180806;28;20056;-51
2021/09/14 12:00:35;;;;;;;17.52;11.93;;;23.60;54.10;;;;;;4181395;28;20037;-51
2021/09/14 12:02:58;;;;;;;16.25;11.80;;;23.60;53.80;;;;;;4181360;28;20116;-59
2021/09/14 12:05:21;;;;;;;22.02;11.60;;;23.60;53.80;;;;;;4180952;28;20052;-59
2021/09/14 12:07:57;;;;;;;23.27;11.73;;;23.60;53.70;;;;;;4181347;28;20037;-59
2021/09/14 12:10:19;;;;;;;36.15;18.83;;;23.60;53.60;;;;;;4182267;28;20056;-53
2021/09/14 12:12:50;;;;;;;19.35;14.82;;;23.60;53.60;;;;;;4182125;28;20057;-59
2021/09/14 12:15:13;;;;;;;42.15;26.88;;;23.60;53.50;;;;;;4182194;28;20045;-55
2021/09/14 12:17:35;;;;;;;25.23;17.75;;;23.60;54.00;;;;;;4181335;28;20055;-56
2021/09/14 12:19:57;;;;;;;34.75;18.52;;;23.60;53.60;;;;;;4180612;28;20053;-57
2021/09/14 12:22:19;;;;;;;27.48;18.50;;;23.50;53.80;;;;;;4165328;28;20046;-55
2021/09/14 12:24:42;;;;;;;28.83;19.42;;;23.50;53.80;;;;;;4164016;28;20048;-51
2021/09/14 12:27:04;;;;;;;27.77;19.35;;;23.60;53.60;;;;;;4164655;28;20049;-55
2021/09/14 12:29:27;;;;;;;38.22;20.88;;;23.60;53.60;;;;;;4174276;28;20041;-56
2021/09/14 12:31:49;;;;;;;25.20;20.10;;;23.60;53.50;;;;;;4179067;28;20077;-48
2021/09/14 12:34:15;;;;;;;26.40;18.95;;;23.60;53.40;;;;;;4181953;28;20050;-53
2021/09/14 12:36:37;;;;;;;27.67;19.77;;;23.60;53.50;;;;;;4166138;28;20069;-55
2021/09/14 12:39:00;;;;;;;26.27;19.13;;;23.60;53.40;;;;;;4164930;28;20056;-49
2021/09/14 12:41:22;;;;;;;27.25;18.95;;;23.60;53.50;;;;;;4164330;28;20045;-51
2021/09/14 12:43:46;;;;;;;24.30;19.45;;;23.60;53.30;;;;;;4151081;28;20042;-56
2021/09/14 12:46:08;;;;;;;35.08;20.25;;;23.60;53.50;;;;;;4164433;28;20069;-53
2021/09/14 12:48:31;;;;;;;22.00;17.38;;;23.60;53.70;;;;;;4164174;28;20049;-55
2021/09/14 12:50:54;;;;;;;27.55;20.33;;;23.60;53.50;;;;;;4164649;28;20034;-57
2021/09/14 12:53:16;;;;;;;23.92;17.00;;;23.60;53.50;;;;;;4166023;28;20053;-55
2021/09/14 12:55:38;;;;;;;25.58;17.85;;;23.60;53.30;;;;;;4165083;28;20057;-55
2021/09/14 12:58:03;;;;;;;26.00;16.17;;;23.60;53.30;;;;;;4164885;28;20110;-56
2021/09/14 13:00:25;;;;;;;25.98;17.38;;;23.60;53.20;;;;;;4166423;28;20046;-57
2021/09/14 13:02:47;;;;;;;20.20;14.75;;;23.70;53.30;;;;;;4165634;28;20052;-57
2021/09/14 13:05:10;;;;;;;29.40;14.82;;;23.60;53.20;;;;;;4164990;28;20750;-57
2021/09/14 13:07:32;;;;;;;22.60;14.60;;;23.60;53.10;;;;;;4164925;28;20057;-57